Time;durP1;ratioP1;P1;durP2;ratioP2;P2;SDS_P1;SDS_P2;PMS_P1;PMS_P2;Temp;Humidity;BMP_temperature;BMP_pressure;BME280_temperature;BME280_humidity;BME280_pressure;Samples;Min_cycle;Max_cycle;Signal;HPM_P1;HPM_P2
2021/06/14 00:00:40;;;;;;;5.03;3.10;;;13.50;90.60;;;;;;4995221;28;20783;-84
2021/06/14 00:03:16;;;;;;;6.00;3.17;;;13.40;90.40;;;;;;5001715;28;20584;-83
2021/06/14 00:05:46;;;;;;;8.17;3.20;;;13.40;90.40;;;;;;4998035;28;20548;-84
2021/06/14 00:08:18;;;;;;;6.43;3.17;;;13.40;90.30;;;;;;4993816;28;20210;-83
2021/06/14 00:10:48;;;;;;;6.60;3.50;;;13.40;90.20;;;;;;4995393;28;20688;-83
2021/06/14 00:13:18;;;;;;;7.67;3.10;;;13.40;90.20;;;;;;4998968;28;20242;-82
2021/06/14 00:15:49;;;;;;;11.27;3.30;;;13.40;90.10;;;;;;4997689;28;20339;-83
2021/06/14 00:18:20;;;;;;;4.80;2.43;;;13.30;90.00;;;;;;4995295;28;20424;-83
2021/06/14 00:20:54;;;;;;;4.67;2.77;;;13.20;90.00;;;;;;4998104;28;20235;-82
2021/06/14 00:23:25;;;;;;;7.43;3.20;;;13.20;90.10;;;;;;5009785;28;20217;-82
2021/06/14 00:25:54;;;;;;;4.40;2.80;;;13.10;90.20;;;;;;5003866;28;20222;-83
2021/06/14 00:28:23;;;;;;;7.13;2.97;;;13.10;90.10;;;;;;5003569;28;20203;-82
2021/06/14 00:30:53;;;;;;;7.33;2.87;;;13.20;89.90;;;;;;4996638;28;20216;-83
2021/06/14 00:33:23;;;;;;;6.17;3.10;;;13.20;89.50;;;;;;4999426;28;20254;-84
2021/06/14 00:35:52;;;;;;;6.70;2.80;;;13.20;89.40;;;;;;5004662;28;20215;-83
2021/06/14 00:38:21;;;;;;;8.40;3.47;;;13.20;89.20;;;;;;4992199;28;20696;-83
2021/06/14 00:40:51;;;;;;;8.23;3.13;;;13.10;89.30;;;;;;5019031;28;20520;-82
2021/06/14 00:43:20;;;;;;;4.33;2.50;;;13.10;89.50;;;;;;5021387;28;20195;-84
2021/06/14 00:45:51;;;;;;;4.00;2.87;;;13.00;89.60;;;;;;5019207;28;20184;-83
2021/06/14 00:48:22;;;;;;;4.10;3.10;;;13.00;89.60;;;;;;5012919;28;20227;-84
2021/06/14 00:50:53;;;;;;;5.03;2.50;;;13.00;89.60;;;;;;4995306;28;20226;-82
2021/06/14 00:53:24;;;;;;;5.97;2.60;;;13.00;89.70;;;;;;5004999;28;20217;-83
2021/06/14 00:55:53;;;;;;;5.70;2.70;;;13.00;89.40;;;;;;5009050;28;20959;-82
2021/06/14 00:58:22;;;;;;;4.73;2.77;;;13.00;89.30;;;;;;5004903;28;20387;-82
2021/06/14 01:00:51;;;;;;;4.43;2.60;;;13.00;89.50;;;;;;5000380;28;20669;-82
2021/06/14 01:03:21;;;;;;;4.17;2.80;;;13.00;89.20;;;;;;4997378;28;20203;-83
2021/06/14 01:05:52;;;;;;;6.77;2.80;;;12.90;89.40;;;;;;5004918;28;20203;-81
2021/06/14 01:08:21;;;;;;;5.30;2.87;;;12.90;89.50;;;;;;4997240;28;20230;-82
2021/06/14 01:10:50;;;;;;;3.80;2.40;;;12.90;89.70;;;;;;4993762;28;20218;-83
2021/06/14 01:13:33;;;;;;;4.00;2.90;;;12.90;89.80;;;;;;4995270;28;20309;-84
2021/06/14 01:16:16;;;;;;;10.10;3.43;;;12.90;89.90;;;;;;4988184;28;20282;-82
2021/06/14 01:18:54;;;;;;;2.23;1.93;;;12.90;89.70;;;;;;4997397;28;20199;-82
2021/06/14 01:21:28;;;;;;;4.47;2.40;;;12.90;89.80;;;;;;5001440;28;20257;-84
2021/06/14 01:24:33;;;;;;;4.27;2.40;;;12.90;89.50;;;;;;5002810;28;20579;-82
2021/06/14 01:27:05;;;;;;;4.97;2.90;;;12.90;89.70;;;;;;4994231;28;20214;-82
2021/06/14 01:29:36;;;;;;;7.10;2.80;;;12.80;89.90;;;;;;5002023;28;20316;-83
2021/06/14 01:32:08;;;;;;;5.20;2.70;;;12.80;90.00;;;;;;4994763;28;20231;-83
2021/06/14 01:34:39;;;;;;;5.40;2.63;;;12.70;90.10;;;;;;4993623;28;20322;-83
2021/06/14 01:37:10;;;;;;;4.73;2.53;;;12.70;90.20;;;;;;4993752;28;20670;-81
2021/06/14 01:39:41;;;;;;;7.30;3.13;;;12.60;90.20;;;;;;4989473;28;20812;-83
2021/06/14 01:42:11;;;;;;;6.23;2.90;;;12.60;90.40;;;;;;5003080;28;20981;-82
2021/06/14 01:44:45;;;;;;;6.73;2.23;;;12.70;90.30;;;;;;5002714;28;20202;-83
2021/06/14 01:47:16;;;;;;;7.00;3.17;;;12.70;90.40;;;;;;5020037;28;20187;-83
2021/06/14 01:49:46;;;;;;;9.37;3.70;;;12.70;90.30;;;;;;5002662;28;20204;-83
2021/06/14 01:52:15;;;;;;;5.50;2.80;;;12.70;90.30;;;;;;4993763;28;20520;-81
2021/06/14 01:54:46;;;;;;;5.17;3.13;;;12.70;90.40;;;;;;4991658;28;20238;-82
2021/06/14 01:57:15;;;;;;;7.47;3.47;;;12.50;90.50;;;;;;4990455;28;20901;-82
2021/06/14 01:59:47;;;;;;;5.77;2.97;;;12.70;90.50;;;;;;4997089;28;20203;-83
2021/06/14 02:02:17;;;;;;;6.20;3.17;;;12.60;90.70;;;;;;5007596;28;20197;-85
2021/06/14 02:04:48;;;;;;;6.47;2.87;;;12.60;90.60;;;;;;5016718;28;20196;-85
2021/06/14 02:07:18;;;;;;;7.40;3.10;;;12.60;90.80;;;;;;5017385;28;20195;-82
2021/06/14 02:09:47;;;;;;;6.63;2.83;;;12.60;90.70;;;;;;5014259;28;20187;-84
2021/06/14 02:12:16;;;;;;;4.90;2.90;;;12.50;90.90;;;;;;5019650;28;20627;-83
2021/06/14 02:14:47;;;;;;;6.57;2.97;;;12.50;90.90;;;;;;4999602;28;20220;-83
2021/06/14 02:17:20;;;;;;;6.70;3.27;;;12.50;91.00;;;;;;5006681;28;20195;-83
2021/06/14 02:19:49;;;;;;;6.63;3.07;;;12.50;91.20;;;;;;5019862;28;20226;-82
2021/06/14 02:22:20;;;;;;;6.63;3.10;;;12.50;91.10;;;;;;5020578;28;20199;-82
2021/06/14 02:24:49;;;;;;;9.70;3.13;;;12.40;91.20;;;;;;5012693;28;20192;-82
2021/06/14 02:27:18;;;;;;;4.37;3.10;;;12.40;91.30;;;;;;4988825;28;20203;-84
2021/06/14 02:29:49;;;;;;;6.73;3.57;;;12.40;91.50;;;;;;4996898;28;21052;-83
2021/06/14 02:32:18;;;;;;;6.00;3.13;;;12.30;91.60;;;;;;5001921;28;20211;-82
2021/06/14 02:34:48;;;;;;;7.37;3.37;;;12.30;92.00;;;;;;4999264;28;20232;-81
2021/06/14 02:37:20;;;;;;;11.67;3.47;;;12.10;92.00;;;;;;4998819;28;20203;-83
2021/06/14 02:39:51;;;;;;;7.53;3.67;;;12.20;92.20;;;;;;4992912;28;20267;-84
2021/06/14 02:42:21;;;;;;;6.17;3.23;;;12.20;92.30;;;;;;4994213;28;20676;-83
2021/06/14 02:44:52;;;;;;;4.43;3.13;;;12.20;92.40;;;;;;4996076;28;20207;-84
2021/06/14 02:47:21;;;;;;;6.53;3.47;;;12.20;92.50;;;;;;4988054;28;20583;-84
2021/06/14 02:49:51;;;;;;;10.23;3.30;;;12.20;92.50;;;;;;4997465;28;20203;-85
2021/06/14 02:52:20;;;;;;;5.50;3.70;;;12.20;92.60;;;;;;5005842;28;20226;-83
2021/06/14 02:54:53;;;;;;;9.53;3.43;;;12.20;92.70;;;;;;5002298;28;20204;-84
2021/06/14 02:57:23;;;;;;;9.73;3.50;;;12.30;92.80;;;;;;5000718;28;20203;-82
2021/06/14 02:59:54;;;;;;;5.37;3.40;;;12.30;92.80;;;;;;5005644;28;20323;-83
2021/06/14 03:02:24;;;;;;;5.93;3.13;;;12.30;92.90;;;;;;5001901;28;20222;-83
2021/06/14 03:04:53;;;;;;;8.60;3.30;;;12.40;92.60;;;;;;4999191;28;20294;-84
2021/06/14 03:07:26;;;;;;;6.90;3.43;;;12.40;92.50;;;;;;4998484;28;20230;-84
2021/06/14 03:09:55;;;;;;;3.93;3.00;;;12.40;92.60;;;;;;5008473;28;20218;-83
2021/06/14 03:12:28;;;;;;;7.00;3.20;;;12.40;92.40;;;;;;5006169;28;20211;-83
2021/06/14 03:14:59;;;;;;;5.60;3.40;;;12.50;92.30;;;;;;5001359;28;20203;-82
2021/06/14 03:17:27;;;;;;;6.60;3.40;;;12.50;91.90;;;;;;5004311;28;20261;-82
2021/06/14 03:19:58;;;;;;;5.97;3.40;;;12.50;92.10;;;;;;5004862;28;20263;-83
2021/06/14 03:22:27;;;;;;;6.53;3.60;;;12.60;91.90;;;;;;4999031;28;20216;-81
2021/06/14 03:24:56;;;;;;;7.57;3.40;;;12.50;91.80;;;;;;4998728;28;20203;-82
2021/06/14 03:27:25;;;;;;;8.77;4.20;;;12.60;91.90;;;;;;4996353;28;20204;-80
2021/06/14 03:29:55;;;;;;;9.10;3.87;;;12.60;92.00;;;;;;4991468;28;20206;-82
2021/06/14 03:32:26;;;;;;;5.50;3.63;;;12.60;92.00;;;;;;4994355;28;20215;-82
2021/06/14 03:34:55;;;;;;;8.87;3.47;;;12.60;92.00;;;;;;4992465;28;20212;-84
2021/06/14 03:37:25;;;;;;;5.50;3.30;;;12.60;92.00;;;;;;4994145;28;20360;-82
2021/06/14 03:39:58;;;;;;;6.40;3.77;;;12.60;91.90;;;;;;4996858;28;20211;-85
2021/06/14 03:42:30;;;;;;;7.40;3.90;;;12.60;91.80;;;;;;4993453;28;20207;-81
2021/06/14 03:44:59;;;;;;;6.60;3.50;;;12.60;91.70;;;;;;5003869;28;20227;-85
2021/06/14 03:47:30;;;;;;;10.10;4.03;;;12.70;91.80;;;;;;4998720;28;20281;-82
2021/06/14 03:49:58;;;;;;;5.30;3.53;;;12.70;91.70;;;;;;4993390;28;20769;-84
2021/06/14 03:52:27;;;;;;;7.70;4.07;;;12.70;91.60;;;;;;4992617;28;20206;-83
2021/06/14 03:54:56;;;;;;;5.50;3.17;;;12.70;91.80;;;;;;4992047;28;20212;-84
2021/06/14 03:57:24;;;;;;;5.83;3.37;;;12.80;91.90;;;;;;4992057;28;20383;-83
2021/06/14 03:59:53;;;;;;;5.73;3.60;;;12.80;91.70;;;;;;4991819;28;20301;-81
2021/06/14 04:02:22;;;;;;;9.10;3.90;;;12.90;91.80;;;;;;4993699;28;20231;-83
2021/06/14 04:04:54;;;;;;;6.30;3.37;;;12.90;92.00;;;;;;4997592;28;20661;-82
2021/06/14 04:07:22;;;;;;;4.30;3.67;;;12.90;91.60;;;;;;5003303;28;20223;-84
2021/06/14 04:09:52;;;;;;;6.50;3.67;;;13.00;91.50;;;;;;5019508;28;20195;-83
2021/06/14 04:12:20;;;;;;;7.00;3.50;;;13.10;91.30;;;;;;4995533;28;20792;-83
2021/06/14 04:14:49;;;;;;;8.17;4.13;;;13.20;91.50;;;;;;4994004;28;20231;-84
2021/06/14 04:17:18;;;;;;;5.10;3.73;;;13.30;91.30;;;;;;4984102;28;20806;-83
2021/06/14 04:19:46;;;;;;;7.40;3.43;;;13.30;91.30;;;;;;4987450;28;20277;-82
2021/06/14 04:22:17;;;;;;;6.27;3.47;;;13.40;91.50;;;;;;4986647;28;20212;-83
2021/06/14 04:24:45;;;;;;;6.77;3.23;;;13.50;91.10;;;;;;4988987;28;20207;-81
2021/06/14 04:27:14;;;;;;;5.07;3.17;;;13.60;91.00;;;;;;4985000;28;20724;-81
2021/06/14 04:29:43;;;;;;;6.40;3.83;;;13.60;90.80;;;;;;4988770;28;21203;-83
2021/06/14 04:32:11;;;;;;;7.23;3.73;;;13.70;90.70;;;;;;4986853;28;20290;-82
2021/06/14 04:34:44;;;;;;;7.53;3.10;;;13.80;90.80;;;;;;4990110;28;20316;-83
2021/06/14 04:37:13;;;;;;;7.77;3.53;;;14.00;90.20;;;;;;4982344;28;20356;-81
2021/06/14 04:39:43;;;;;;;8.90;4.27;;;14.00;90.10;;;;;;4991110;28;20200;-82
2021/06/14 04:42:11;;;;;;;4.07;3.20;;;14.00;90.20;;;;;;4983559;28;20533;-82
2021/06/14 04:44:40;;;;;;;8.23;3.87;;;14.20;90.00;;;;;;4986237;28;20701;-82
2021/06/14 04:47:09;;;;;;;7.97;3.43;;;14.30;90.20;;;;;;4980820;28;20633;-81
2021/06/14 04:49:37;;;;;;;10.53;3.73;;;14.40;89.40;;;;;;4988287;28;21007;-83
2021/06/14 04:52:07;;;;;;;6.63;3.40;;;14.50;89.00;;;;;;4981088;28;20242;-83
2021/06/14 04:54:36;;;;;;;6.63;3.47;;;14.50;89.10;;;;;;4998679;28;20415;-83
2021/06/14 04:57:07;;;;;;;6.20;3.20;;;14.50;88.40;;;;;;4982404;28;20306;-84
2021/06/14 04:59:36;;;;;;;7.40;2.80;;;14.50;89.00;;;;;;4988000;28;20737;-82
2021/06/14 05:02:05;;;;;;;8.03;3.27;;;14.60;89.30;;;;;;4989429;28;20764;-81
2021/06/14 05:04:33;;;;;;;5.63;3.20;;;14.70;88.60;;;;;;4988274;28;20208;-83
2021/06/14 05:07:02;;;;;;;6.20;2.90;;;14.70;88.10;;;;;;4971379;28;20431;-83
2021/06/14 05:09:31;;;;;;;6.57;2.83;;;14.70;88.10;;;;;;4983621;28;20200;-82
2021/06/14 05:11:59;;;;;;;7.20;3.37;;;14.70;88.00;;;;;;4982257;28;20199;-82
2021/06/14 05:14:29;;;;;;;7.63;3.73;;;14.80;88.40;;;;;;4983568;28;20552;-82
2021/06/14 05:16:58;;;;;;;5.83;2.77;;;14.80;88.10;;;;;;4978549;28;20370;-81
2021/06/14 05:19:27;;;;;;;9.40;3.33;;;14.90;87.60;;;;;;4977742;28;20218;-82
2021/06/14 05:21:55;;;;;;;6.60;3.00;;;14.80;87.70;;;;;;4987029;28;20247;-83
2021/06/14 05:24:24;;;;;;;7.13;3.03;;;14.90;88.00;;;;;;4982804;28;20251;-81
2021/06/14 05:26:52;;;;;;;6.47;2.77;;;15.10;88.20;;;;;;4993335;28;20195;-81
2021/06/14 05:29:21;;;;;;;6.53;2.60;;;15.20;87.30;;;;;;4994483;28;20613;-83
2021/06/14 05:31:51;;;;;;;7.10;2.60;;;15.30;87.10;;;;;;4996139;28;20238;-81
2021/06/14 05:34:20;;;;;;;5.37;2.83;;;15.50;86.80;;;;;;4987041;28;20532;-81
2021/06/14 05:36:49;;;;;;;3.67;2.90;;;15.60;86.40;;;;;;4979024;28;20601;-83
2021/06/14 05:39:17;;;;;;;3.27;2.20;;;15.70;86.50;;;;;;4989475;28;20290;-81
2021/06/14 05:41:47;;;;;;;4.50;2.33;;;15.70;86.30;;;;;;4986922;28;20211;-81
2021/06/14 05:44:16;;;;;;;6.27;2.63;;;15.80;85.90;;;;;;4978924;28;20222;-82
2021/06/14 05:46:45;;;;;;;4.97;2.20;;;16.00;85.40;;;;;;4985899;28;20555;-84
2021/06/14 05:49:15;;;;;;;4.00;2.00;;;16.10;85.20;;;;;;4984386;28;20794;-83
2021/06/14 05:51:44;;;;;;;4.67;2.10;;;16.10;85.10;;;;;;4988323;28;20208;-81
2021/06/14 05:54:12;;;;;;;4.77;2.10;;;16.10;84.90;;;;;;4985672;28;20761;-82
2021/06/14 05:56:41;;;;;;;2.87;1.80;;;16.20;84.70;;;;;;4983083;28;20223;-82
2021/06/14 05:59:10;;;;;;;3.33;2.47;;;16.20;84.60;;;;;;4992793;28;20211;-82
2021/06/14 06:01:39;;;;;;;3.10;2.07;;;16.30;84.40;;;;;;4973629;28;20641;-82
2021/06/14 06:04:07;;;;;;;5.63;2.23;;;16.40;84.40;;;;;;4984540;28;20223;-84
2021/06/14 06:06:38;;;;;;;4.60;1.70;;;16.50;84.20;;;;;;4965202;28;20219;-82
2021/06/14 06:09:07;;;;;;;2.93;1.90;;;16.60;83.70;;;;;;4994789;28;20236;-84
2021/06/14 06:11:35;;;;;;;2.00;1.80;;;16.60;83.90;;;;;;4987737;28;20539;-85
2021/06/14 06:14:05;;;;;;;5.53;2.20;;;16.80;83.60;;;;;;4999541;28;20275;-85
2021/06/14 06:16:34;;;;;;;7.27;2.33;;;16.90;83.10;;;;;;4999267;28;20203;-84
2021/06/14 06:19:03;;;;;;;3.63;1.90;;;17.00;83.30;;;;;;4999836;28;20200;-84
2021/06/14 06:21:32;;;;;;;4.50;1.90;;;17.10;82.80;;;;;;4999561;28;20200;-82
2021/06/14 06:24:02;;;;;;;4.73;1.63;;;17.10;82.80;;;;;;5000411;28;20211;-84
2021/06/14 06:26:31;;;;;;;4.87;1.43;;;17.30;82.60;;;;;;4996864;28;20277;-84
2021/06/14 06:29:00;;;;;;;2.27;1.70;;;17.30;81.30;;;;;;4999744;28;20524;-84
2021/06/14 06:31:29;;;;;;;2.40;1.43;;;17.20;81.70;;;;;;4998616;28;20302;-84
2021/06/14 06:33:58;;;;;;;2.00;1.67;;;17.20;81.80;;;;;;4989551;28;20211;-83
2021/06/14 06:36:27;;;;;;;6.23;1.60;;;17.20;81.70;;;;;;4995306;28;20522;-85
2021/06/14 06:38:56;;;;;;;1.63;1.50;;;17.40;82.20;;;;;;4980246;28;20338;-83
2021/06/14 06:41:26;;;;;;;1.50;1.40;;;17.50;80.70;;;;;;4988231;28;20222;-87
2021/06/14 06:43:55;;;;;;;2.97;1.70;;;17.60;80.80;;;;;;4980670;28;20211;-86
2021/06/14 06:46:24;;;;;;;2.93;1.53;;;17.70;80.70;;;;;;4966359;28;20279;-85
2021/06/14 06:48:53;;;;;;;2.80;1.30;;;17.90;80.80;;;;;;4978508;28;20204;-85
2021/06/14 06:51:22;;;;;;;4.27;2.23;;;18.00;80.70;;;;;;4976843;28;20208;-82
2021/06/14 06:54:10;;;;;;;3.53;1.33;;;18.10;80.00;;;;;;4975105;28;20625;-83
2021/06/14 06:56:52;;;;;;;1.40;1.10;;;18.10;79.80;;;;;;4984521;28;20655;-83
2021/06/14 06:59:22;;;;;;;2.17;1.60;;;18.20;78.60;;;;;;4986827;28;20226;-84
2021/06/14 07:01:51;;;;;;;3.60;1.50;;;18.10;78.30;;;;;;4974953;28;21025;-84
2021/06/14 07:04:20;;;;;;;1.90;1.30;;;18.30;78.30;;;;;;4987431;28;20490;-85
2021/06/14 07:06:50;;;;;;;2.07;1.60;;;18.30;77.60;;;;;;4964461;28;20294;-85
2021/06/14 07:09:19;;;;;;;4.47;1.53;;;18.40;77.70;;;;;;4983261;28;20447;-85
2021/06/14 07:11:50;;;;;;;3.03;1.53;;;18.30;76.40;;;;;;4977535;28;20215;-85
2021/06/14 07:14:20;;;;;;;4.97;1.53;;;18.50;77.90;;;;;;4980706;28;20205;-83
2021/06/14 07:16:49;;;;;;;4.03;1.27;;;18.70;77.40;;;;;;4974751;28;20212;-84
2021/06/14 07:19:19;;;;;;;2.83;1.60;;;18.80;75.30;;;;;;4976172;28;20804;-84
2021/06/14 07:21:48;;;;;;;2.40;1.33;;;18.80;76.50;;;;;;4974849;28;20422;-86
2021/06/14 07:24:17;;;;;;;2.23;1.40;;;19.00;76.10;;;;;;4979541;28;20488;-83
2021/06/14 07:26:46;;;;;;;2.87;1.53;;;18.90;75.10;;;;;;4954902;28;20478;-88
2021/06/14 07:29:17;;;;;;;3.63;1.50;;;18.70;75.30;;;;;;4976882;28;20979;-87
2021/06/14 07:31:48;;;;;;;1.53;1.40;;;18.70;74.80;;;;;;4971951;28;20211;-84
2021/06/14 07:34:18;;;;;;;3.23;1.47;;;18.80;75.10;;;;;;4985084;28;20592;-86
2021/06/14 07:36:49;;;;;;;1.93;1.40;;;18.90;74.80;;;;;;4981104;28;20338;-85
2021/06/14 07:39:18;;;;;;;3.53;1.30;;;19.00;74.90;;;;;;4992777;28;20553;-84
2021/06/14 07:41:51;;;;;;;3.33;1.50;;;19.00;75.20;;;;;;4989525;28;20222;-84
2021/06/14 07:44:23;;;;;;;2.93;1.67;;;19.00;74.20;;;;;;4954422;28;20303;-83
2021/06/14 07:46:54;;;;;;;1.87;1.50;;;19.10;73.70;;;;;;4983232;28;20210;-86
2021/06/14 07:49:26;;;;;;;3.03;1.80;;;19.00;73.40;;;;;;4985097;28;20207;-85
2021/06/14 07:51:56;;;;;;;1.97;1.43;;;18.90;74.20;;;;;;4994782;28;20287;-83
2021/06/14 07:54:27;;;;;;;1.70;1.60;;;19.10;75.00;;;;;;4994180;28;20204;-85
2021/06/14 07:56:56;;;;;;;2.93;1.30;;;19.10;73.60;;;;;;4987230;28;20509;-84
2021/06/14 07:59:27;;;;;;;2.50;1.30;;;19.10;73.20;;;;;;4996549;28;20230;-83
2021/06/14 08:01:56;;;;;;;3.27;1.43;;;18.90;73.10;;;;;;4990151;28;20212;-86
2021/06/14 08:04:25;;;;;;;2.33;1.50;;;18.90;74.60;;;;;;4988267;28;20282;-84
2021/06/14 08:06:54;;;;;;;2.50;1.50;;;19.00;74.40;;;;;;4976496;28;20451;-87
2021/06/14 08:09:28;;;;;;;2.17;1.40;;;19.30;74.40;;;;;;4979479;28;20218;-85
2021/06/14 08:11:59;;;;;;;2.33;1.27;;;19.40;74.50;;;;;;4994427;28;20247;-85
2021/06/14 08:14:30;;;;;;;1.33;1.23;;;19.50;73.20;;;;;;4993340;28;20196;-86
2021/06/14 08:17:00;;;;;;;1.90;1.60;;;19.70;72.60;;;;;;4982037;28;20203;-86
2021/06/14 08:19:36;;;;;;;2.07;1.70;;;19.80;73.20;;;;;;4983885;28;20234;-85
2021/06/14 08:22:34;;;;;;;1.80;1.33;;;20.00;74.00;;;;;;4974362;28;20214;-85
2021/06/14 08:25:04;;;;;;;2.37;1.50;;;20.10;72.60;;;;;;4997604;28;20410;-83
2021/06/14 08:27:35;;;;;;;3.97;1.50;;;20.00;72.30;;;;;;4992937;28;20207;-86
2021/06/14 08:30:10;;;;;;;2.10;1.60;;;19.90;72.10;;;;;;4991973;28;20222;-86
2021/06/14 08:32:39;;;;;;;1.67;1.57;;;19.90;72.60;;;;;;4979301;28;20904;-85
2021/06/14 08:35:13;;;;;;;2.07;1.40;;;19.80;71.70;;;;;;4975331;28;20207;-83
2021/06/14 08:37:42;;;;;;;2.67;1.50;;;19.80;70.90;;;;;;4971787;28;20211;-84
2021/06/14 08:40:12;;;;;;;1.50;1.40;;;19.80;71.60;;;;;;4976334;28;20195;-85
2021/06/14 08:42:42;;;;;;;1.87;1.30;;;19.80;70.40;;;;;;4975820;28;20765;-87
2021/06/14 08:45:15;;;;;;;2.40;1.50;;;19.70;71.40;;;;;;4972265;28;20700;-86
2021/06/14 08:47:47;;;;;;;3.20;1.40;;;19.70;71.30;;;;;;4968782;28;20915;-84
2021/06/14 08:50:20;;;;;;;2.10;1.40;;;19.70;71.00;;;;;;4981048;28;20286;-87
2021/06/14 08:52:51;;;;;;;1.27;1.17;;;19.80;70.50;;;;;;4998953;28;20264;-85
2021/06/14 08:55:21;;;;;;;1.50;1.40;;;19.90;70.90;;;;;;4998958;28;20586;-86
2021/06/14 08:57:51;;;;;;;1.37;1.27;;;19.80;70.40;;;;;;4977755;28;20589;-84
2021/06/14 09:00:23;;;;;;;2.13;1.53;;;19.80;71.30;;;;;;4971700;28;20231;-85
2021/06/14 09:02:54;;;;;;;1.63;1.30;;;20.00;71.00;;;;;;4978711;28;20250;-86
2021/06/14 09:05:24;;;;;;;1.93;1.30;;;20.20;70.20;;;;;;4984810;28;20303;-85
2021/06/14 09:07:56;;;;;;;2.33;1.33;;;20.10;70.70;;;;;;4974246;28;20222;-85
2021/06/14 09:10:30;;;;;;;1.23;1.13;;;20.20;70.70;;;;;;4955696;28;20295;-86
2021/06/14 09:13:16;;;;;;;1.93;1.53;;;20.30;70.70;;;;;;4974761;28;20204;-83
2021/06/14 09:15:48;;;;;;;3.90;1.40;;;20.20;70.40;;;;;;4976168;28;20612;-83
2021/06/14 09:18:20;;;;;;;2.80;1.60;;;20.20;70.50;;;;;;4975222;28;20227;-85
2021/06/14 09:20:58;;;;;;;2.93;1.70;;;20.30;70.20;;;;;;4996666;28;20208;-87
2021/06/14 09:23:39;;;;;;;1.70;1.60;;;20.10;70.90;;;;;;4998352;28;20206;-84
2021/06/14 09:26:09;;;;;;;2.40;1.40;;;20.10;69.90;;;;;;4992126;28;20231;-88
2021/06/14 09:28:48;;;;;;;2.43;1.50;;;20.10;70.70;;;;;;4975883;28;20458;-86
2021/06/14 09:31:29;;;;;;;3.13;1.50;;;20.00;69.90;;;;;;5001848;28;20234;-86
2021/06/14 09:33:58;;;;;;;1.53;1.43;;;19.90;70.30;;;;;;4976774;28;20699;-85
2021/06/14 09:36:27;;;;;;;1.83;1.50;;;19.80;70.70;;;;;;4983433;28;20960;-84
2021/06/14 09:39:08;;;;;;;2.43;1.30;;;20.10;69.40;;;;;;4984872;28;20228;-84
2021/06/14 09:41:42;;;;;;;1.90;1.67;;;20.20;70.60;;;;;;4980131;28;20255;-85
2021/06/14 09:44:12;;;;;;;1.27;1.17;;;20.40;70.60;;;;;;4986264;28;20207;-86
2021/06/14 09:46:43;;;;;;;1.30;1.20;;;20.40;70.10;;;;;;4970174;28;21436;-83
2021/06/14 09:49:19;;;;;;;1.73;1.40;;;20.40;70.80;;;;;;4983743;28;20574;-85
2021/06/14 09:51:52;;;;;;;1.67;1.57;;;20.40;71.20;;;;;;4975186;28;20229;-84
2021/06/14 09:54:28;;;;;;;2.10;1.30;;;20.50;71.00;;;;;;4976293;28;20207;-84
2021/06/14 09:56:59;;;;;;;1.93;1.50;;;20.60;70.80;;;;;;4979949;28;20207;-84
2021/06/14 09:59:32;;;;;;;1.63;1.50;;;20.50;69.40;;;;;;4987658;28;20242;-86
2021/06/14 10:02:06;;;;;;;2.30;1.30;;;20.20;70.50;;;;;;4995179;28;20270;-81
2021/06/14 10:04:35;;;;;;;1.77;1.37;;;20.40;70.50;;;;;;4956510;28;20318;-83
2021/06/14 10:07:12;;;;;;;1.60;1.50;;;20.40;70.40;;;;;;4979196;28;21258;-86
2021/06/14 10:09:42;;;;;;;1.80;1.50;;;20.60;69.80;;;;;;4978634;28;20230;-85
2021/06/14 10:12:19;;;;;;;2.23;1.57;;;20.50;70.30;;;;;;4988281;28;20211;-84
2021/06/14 10:14:52;;;;;;;2.03;1.83;;;20.50;69.90;;;;;;4988376;28;20767;-83
2021/06/14 10:17:40;;;;;;;4.30;1.70;;;20.40;69.60;;;;;;4979038;28;20217;-83
2021/06/14 10:20:14;;;;;;;1.90;1.30;;;20.20;70.30;;;;;;4985556;28;20240;-82
2021/06/14 10:22:50;;;;;;;1.50;1.40;;;20.20;70.50;;;;;;4982764;28;20204;-83
2021/06/14 10:25:34;;;;;;;3.13;1.93;;;20.40;71.00;;;;;;4984825;28;20322;-85
2021/06/14 10:28:04;;;;;;;2.63;1.53;;;20.30;71.00;;;;;;4984954;28;20215;-83
2021/06/14 10:30:33;;;;;;;2.03;1.67;;;20.30;70.30;;;;;;4980534;28;20211;-84
2021/06/14 10:33:05;;;;;;;1.87;1.77;;;20.40;69.90;;;;;;4979728;28;20547;-83
2021/06/14 10:35:37;;;;;;;2.60;1.27;;;20.30;69.30;;;;;;4976201;28;20257;-86
2021/06/14 10:38:06;;;;;;;1.60;1.50;;;20.50;70.00;;;;;;4978339;28;20209;-83
2021/06/14 10:40:37;;;;;;;1.93;1.67;;;20.50;69.50;;;;;;4985407;28;20238;-85
2021/06/14 10:43:06;;;;;;;1.80;1.40;;;20.40;69.20;;;;;;4966580;28;20218;-82
2021/06/14 10:45:36;;;;;;;2.90;1.70;;;20.30;70.40;;;;;;4980140;28;20788;-84
2021/06/14 10:48:10;;;;;;;3.73;1.70;;;20.30;70.50;;;;;;4973616;28;20204;-84
2021/06/14 10:51:02;;;;;;;1.50;1.23;;;20.50;69.60;;;;;;4982605;28;20204;-85
2021/06/14 10:53:32;;;;;;;1.67;1.57;;;20.60;69.80;;;;;;4982860;28;20207;-86
2021/06/14 10:56:02;;;;;;;1.23;1.13;;;20.60;70.00;;;;;;4982905;28;20607;-83
2021/06/14 10:58:34;;;;;;;2.70;1.67;;;20.70;68.20;;;;;;4969171;28;20645;-85
2021/06/14 11:01:07;;;;;;;1.47;1.33;;;20.70;69.30;;;;;;4980139;28;20720;-85
2021/06/14 11:03:49;;;;;;;1.40;1.30;;;20.70;69.20;;;;;;4996275;28;20199;-87
2021/06/14 11:06:23;;;;;;;1.73;1.40;;;20.70;69.10;;;;;;4992168;28;20192;-87
2021/06/14 11:09:06;;;;;;;1.87;1.47;;;20.60;69.20;;;;;;5000157;28;20195;-83
2021/06/14 11:11:50;;;;;;;1.47;1.20;;;20.70;70.00;;;;;;4976524;28;20640;-85
2021/06/14 11:14:38;;;;;;;3.40;1.50;;;20.70;69.10;;;;;;4991506;28;20290;-85
2021/06/14 11:17:22;;;;;;;1.43;1.30;;;20.80;70.10;;;;;;4982504;28;20227;-86
2021/06/14 11:20:10;;;;;;;1.50;1.40;;;20.90;70.20;;;;;;4987211;28;20211;-82
2021/06/14 11:22:55;;;;;;;1.60;1.40;;;20.80;69.40;;;;;;4974132;28;20537;-86
2021/06/14 11:25:27;;;;;;;1.60;1.23;;;20.50;68.70;;;;;;4968629;28;20231;-85
2021/06/14 11:27:57;;;;;;;2.33;1.10;;;20.40;69.10;;;;;;5000360;28;20199;-83
2021/06/14 11:30:28;;;;;;;3.20;1.47;;;20.50;69.40;;;;;;4994601;28;20199;-84
2021/06/14 11:32:58;;;;;;;1.87;1.43;;;20.60;70.30;;;;;;4987292;28;20215;-86
2021/06/14 11:35:33;;;;;;;2.13;1.53;;;20.70;70.10;;;;;;4974739;28;20199;-83
2021/06/14 11:38:17;;;;;;;3.07;1.80;;;20.90;69.10;;;;;;4975499;28;20576;-84
2021/06/14 11:40:52;;;;;;;1.80;1.50;;;20.90;68.80;;;;;;4980120;28;20899;-87
2021/06/14 11:43:25;;;;;;;1.90;1.50;;;20.90;69.60;;;;;;4992930;28;20537;-85
2021/06/14 11:45:57;;;;;;;2.33;1.50;;;21.10;69.40;;;;;;4991333;28;20195;-84
2021/06/14 11:48:30;;;;;;;1.50;1.27;;;21.30;69.80;;;;;;4988353;28;20281;-84
2021/06/14 11:51:08;;;;;;;2.00;1.43;;;21.20;68.50;;;;;;4989069;28;20294;-84
2021/06/14 11:53:44;;;;;;;1.73;1.50;;;21.00;68.20;;;;;;4997296;28;20199;-84
2021/06/14 11:56:14;;;;;;;2.17;1.30;;;21.00;67.90;;;;;;4993911;28;20215;-85
2021/06/14 11:58:44;;;;;;;2.10;1.37;;;21.00;68.40;;;;;;4976354;28;20219;-85
2021/06/14 12:01:12;;;;;;;2.30;1.50;;;20.80;67.70;;;;;;4980843;28;20262;-85
2021/06/14 12:03:41;;;;;;;1.50;1.40;;;20.80;67.80;;;;;;4986199;28;20212;-83
2021/06/14 12:06:12;;;;;;;2.23;1.30;;;20.80;68.70;;;;;;4977315;28;20212;-85
2021/06/14 12:08:40;;;;;;;2.13;1.20;;;20.90;68.00;;;;;;4975817;28;20207;-83
2021/06/14 12:11:10;;;;;;;1.47;1.37;;;21.00;68.10;;;;;;4984689;28;20206;-88
2021/06/14 12:13:39;;;;;;;1.97;1.37;;;21.00;68.10;;;;;;5000587;28;20212;-85
2021/06/14 12:16:08;;;;;;;2.27;1.17;;;20.90;67.90;;;;;;4998298;28;20214;-85
2021/06/14 12:18:37;;;;;;;1.57;1.47;;;20.90;68.10;;;;;;4992040;28;20601;-84
2021/06/14 12:21:12;;;;;;;1.97;1.33;;;21.00;67.90;;;;;;5000508;28;20235;-84
2021/06/14 12:23:45;;;;;;;1.40;1.20;;;21.10;68.70;;;;;;4966408;28;20241;-84
2021/06/14 12:26:16;;;;;;;1.97;1.20;;;21.40;67.80;;;;;;4982035;28;20331;-88
2021/06/14 12:28:45;;;;;;;1.57;1.37;;;21.50;68.10;;;;;;4981026;28;20231;-86
2021/06/14 12:31:15;;;;;;;1.77;1.40;;;21.50;67.40;;;;;;4983265;28;20752;-83
2021/06/14 12:33:46;;;;;;;3.40;1.55;;;21.60;67.90;;;;;;4982430;28;20655;-86
2021/06/14 12:36:16;;;;;;;3.33;1.40;;;21.70;68.50;;;;;;4980942;28;20195;-82
2021/06/14 12:38:51;;;;;;;1.83;1.20;;;21.80;68.00;;;;;;4976943;28;20212;-85
2021/06/14 12:41:20;;;;;;;1.60;1.10;;;21.90;67.90;;;;;;4980135;28;20227;-85
2021/06/14 12:43:50;;;;;;;1.77;1.67;;;22.10;67.20;;;;;;4986337;28;20211;-87
2021/06/14 12:46:33;;;;;;;1.52;1.42;;;22.10;67.10;;;;;;4980830;28;20217;-86
2021/06/14 12:49:02;;;;;;;1.40;1.30;;;22.10;66.40;;;;;;4974699;28;20222;-84
2021/06/14 12:51:34;;;;;;;2.42;1.23;;;22.20;67.20;;;;;;4982654;28;20191;-85
2021/06/14 12:54:07;;;;;;;1.42;1.13;;;22.20;66.70;;;;;;4995839;28;20728;-86
2021/06/14 12:56:36;;;;;;;2.20;1.40;;;22.50;66.20;;;;;;4979045;28;20208;-84
2021/06/14 12:59:09;;;;;;;1.90;1.48;;;22.70;66.00;;;;;;4979068;28;20528;-84
2021/06/14 13:01:38;;;;;;;1.48;1.15;;;23.10;65.80;;;;;;4988002;28;20230;-86
2021/06/14 13:04:07;;;;;;;3.25;1.50;;;23.10;65.00;;;;;;4977667;28;20222;-86
2021/06/14 13:06:38;;;;;;;1.67;1.40;;;23.30;64.70;;;;;;4975749;28;20809;-85